createdAt,value
2023-04-11T00:02:19.125Z,96.10
2023-04-11T00:05:21.547Z,96.50
2023-04-11T00:08:23.569Z,97.10
2023-04-11T00:11:26.159Z,97.40
2023-04-11T00:14:28.982Z,97.50
2023-04-11T00:17:31.807Z,97.40
2023-04-11T00:20:34.115Z,97.50
2023-04-11T00:23:36.288Z,97.70
2023-04-11T00:26:38.487Z,97.50
2023-04-11T00:29:41.584Z,97.80
2023-04-11T00:32:46.144Z,98.10
2023-04-11T00:35:48.317Z,98.10
2023-04-11T00:38:50.429Z,98.00
2023-04-11T00:41:52.617Z,98.20
2023-04-11T00:44:54.577Z,98.30
2023-04-11T00:47:56.673Z,98.40
2023-04-11T00:50:58.826Z,98.40
2023-04-11T00:54:01.555Z,98.50
2023-04-11T00:57:05.854Z,98.30
2023-04-11T01:00:10.586Z,98.30
2023-04-11T01:03:12.876Z,98.10
2023-04-11T01:06:16.793Z,97.80
2023-04-11T01:09:25.749Z,97.90
2023-04-11T01:12:29.599Z,98.00
2023-04-11T01:15:31.698Z,97.80
2023-04-11T01:18:33.822Z,97.80
2023-04-11T01:21:37.976Z,97.90
2023-04-11T01:24:40.067Z,98.20
2023-04-11T01:27:43.102Z,97.90
2023-04-11T01:30:45.542Z,98.00
2023-04-11T01:33:47.995Z,98.30
2023-04-11T01:36:50.095Z,98.40
2023-04-11T01:39:52.252Z,98.40
2023-04-11T01:42:55.229Z,98.40
2023-04-11T01:45:57.478Z,98.20
2023-04-11T01:49:03.727Z,98.30
2023-04-11T01:52:05.949Z,98.30
2023-04-11T01:55:09.328Z,98.30
2023-04-11T01:58:11.312Z,98.00
2023-04-11T02:01:13.516Z,97.80
2023-04-11T02:04:15.717Z,98.10
2023-04-11T02:07:17.770Z,98.10
2023-04-11T02:10:19.870Z,98.10
2023-04-11T02:13:21.856Z,98.10
2023-04-11T02:16:25.989Z,98.00
2023-04-11T02:19:28.160Z,97.70
2023-04-11T02:22:30.185Z,97.80
2023-04-11T02:25:32.215Z,97.80
2023-04-11T02:28:34.584Z,98.10
2023-04-11T02:31:38.695Z,98.10
2023-04-11T02:34:41.675Z,98.00
2023-04-11T02:37:44.125Z,98.20
2023-04-11T02:40:46.828Z,98.30
2023-04-11T02:43:48.861Z,98.40
2023-04-11T02:46:50.977Z,98.60
2023-04-11T02:49:53.602Z,98.40
2023-04-11T02:52:55.832Z,98.50
2023-04-11T02:55:57.879Z,98.50
2023-04-11T02:59:00.018Z,98.40
2023-04-11T03:02:03.304Z,98.50
2023-04-11T03:05:06.556Z,98.50
2023-04-11T03:08:10.609Z,98.60
2023-04-11T03:11:12.752Z,98.80
2023-04-11T03:14:14.879Z,98.70
2023-04-11T03:17:17.065Z,98.80
2023-04-11T03:20:19.945Z,98.50
2023-04-11T03:23:23.502Z,98.80
2023-04-11T03:26:28.255Z,98.70
2023-04-11T03:29:30.544Z,98.60
2023-04-11T03:32:32.652Z,98.70
2023-04-11T03:35:34.950Z,98.80
2023-04-11T03:38:37.015Z,98.80
2023-04-11T03:41:39.190Z,98.90
2023-04-11T03:44:41.262Z,98.80
2023-04-11T03:47:44.752Z,98.90
2023-04-11T03:50:47.026Z,98.70
2023-04-11T03:53:49.204Z,98.60
2023-04-11T03:56:51.317Z,98.90
2023-04-11T03:59:55.669Z,98.70
2023-04-11T04:02:57.998Z,99.00
2023-04-11T04:06:00.320Z,99.00
2023-04-11T04:09:02.412Z,99.10
2023-04-11T04:12:04.776Z,99.10
2023-04-11T04:15:09.557Z,99.00
2023-04-11T04:18:12.016Z,98.90
2023-04-11T04:21:14.180Z,99.30
2023-04-11T04:24:16.321Z,99.20
2023-04-11T04:27:18.405Z,99.30
2023-04-11T04:30:22.119Z,99.60
2023-04-11T04:33:26.389Z,99.60
2023-04-11T04:36:29.595Z,99.90
2023-04-11T04:39:34.134Z,99.80
2023-04-11T04:42:36.594Z,99.70
2023-04-11T04:45:38.687Z,99.60
2023-04-11T04:48:41.442Z,99.60
2023-04-11T04:51:43.540Z,99.40
2023-04-11T04:54:45.978Z,99.70
2023-04-11T04:57:47.983Z,99.60
2023-04-11T05:00:56.090Z,99.40
2023-04-11T05:04:01.942Z,99.20
2023-04-11T05:07:04.592Z,99.40
2023-04-11T05:10:07.041Z,99.50
2023-04-11T05:13:09.123Z,99.40
2023-04-11T05:16:12.127Z,99.30
2023-04-11T05:19:14.308Z,99.30
2023-04-11T05:22:16.471Z,99.00
2023-04-11T05:25:18.519Z,99.30
2023-04-11T05:28:20.549Z,99.10
2023-04-11T05:31:22.652Z,99.20
2023-04-11T05:34:24.737Z,99.30
2023-04-11T05:37:26.840Z,99.00
2023-04-11T05:40:28.844Z,99.10
2023-04-11T05:43:30.994Z,99.20
2023-04-11T05:46:36.731Z,99.10
2023-04-11T05:49:39.143Z,99.20
2023-04-11T05:52:41.311Z,99.10
2023-04-11T05:55:43.300Z,99.30
2023-04-11T05:58:45.368Z,99.30
2023-04-11T06:01:48.019Z,99.10
2023-04-11T06:04:50.057Z,98.80
2023-04-11T06:07:53.958Z,98.70
2023-04-11T06:10:56.045Z,99.00
2023-04-11T06:13:58.165Z,98.90
2023-04-11T06:17:00.618Z,98.90
2023-04-11T06:20:04.771Z,99.00
2023-04-11T06:23:08.071Z,98.80
2023-04-11T06:26:11.376Z,99.10
2023-04-11T06:29:13.622Z,98.80
2023-04-11T06:32:15.743Z,98.90
2023-04-11T06:35:20.415Z,98.60
2023-04-11T06:38:22.561Z,98.50
2023-04-11T06:41:24.597Z,98.70
2023-04-11T06:44:27.286Z,98.70
2023-04-11T06:47:29.385Z,97.90
2023-04-11T06:50:31.453Z,96.90
2023-04-11T06:53:33.417Z,95.60
2023-04-11T06:56:35.512Z,94.00
2023-04-11T06:59:37.863Z,93.20
2023-04-11T07:02:40.056Z,92.10
2023-04-11T07:05:42.340Z,90.90
2023-04-11T07:08:44.411Z,89.70
2023-04-11T07:11:46.381Z,87.50
2023-04-11T07:14:48.428Z,86.80
2023-04-11T07:17:52.602Z,87.40
2023-04-11T07:20:55.092Z,86.30
2023-04-11T07:23:57.402Z,83.10
2023-04-11T07:27:02.012Z,84.00
2023-04-11T07:30:04.891Z,81.80
2023-04-11T07:33:07.092Z,80.30
2023-04-11T07:36:09.905Z,79.30
2023-04-11T07:39:13.787Z,76.00
2023-04-11T07:42:15.822Z,77.60
2023-04-11T07:45:18.155Z,74.60
2023-04-11T07:48:22.495Z,75.40
2023-04-11T07:51:25.072Z,71.80
2023-04-11T07:54:28.657Z,73.10
2023-04-11T07:57:30.967Z,71.30
2023-04-11T08:00:33.407Z,69.00
2023-04-11T08:03:37.841Z,67.40
2023-04-11T08:06:40.043Z,68.40
2023-04-11T08:09:42.694Z,67.10
2023-04-11T08:12:44.734Z,65.30
2023-04-11T08:15:46.797Z,64.70
2023-04-11T08:18:48.941Z,63.10
2023-04-11T08:21:52.917Z,65.50
2023-04-11T08:24:55.064Z,63.80
2023-04-11T08:28:00.485Z,62.70
2023-04-11T08:31:04.239Z,62.50
2023-04-11T08:34:07.554Z,61.20
2023-04-11T08:37:10.223Z,61.70
2023-04-11T08:40:12.880Z,62.50
2023-04-11T08:43:15.198Z,61.70
2023-04-11T08:46:18.632Z,62.20
2023-04-11T08:49:20.760Z,61.80
2023-04-11T08:52:23.676Z,62.80
2023-04-11T08:55:25.676Z,63.80
2023-04-11T08:58:27.845Z,62.50
2023-04-11T09:01:34.161Z,61.30
2023-04-11T09:04:44.998Z,58.80
2023-04-11T09:07:50.417Z,57.50
2023-04-11T09:11:01.115Z,56.10
2023-04-11T09:14:11.029Z,55.50
2023-04-11T09:17:14.749Z,53.60
2023-04-11T09:20:30.357Z,53.10
2023-04-11T09:23:32.691Z,51.00
2023-04-11T09:26:34.732Z,49.30
2023-04-11T09:29:40.661Z,49.70
2023-04-11T09:32:42.984Z,48.60
2023-04-11T09:35:51.223Z,50.00
2023-04-11T09:38:54.197Z,49.90
2023-04-11T09:41:57.120Z,49.10
2023-04-11T09:44:59.297Z,50.10
2023-04-11T09:48:01.803Z,50.60
2023-04-11T09:51:07.254Z,48.10
2023-04-11T09:54:12.140Z,48.80
2023-04-11T09:57:14.561Z,48.40
2023-04-11T10:00:19.010Z,47.10
2023-04-11T10:03:23.839Z,47.00
2023-04-11T10:06:45.515Z,47.10
2023-04-11T10:09:48.078Z,46.90
2023-04-11T10:12:51.051Z,48.80
2023-04-11T10:16:16.157Z,47.90
2023-04-11T10:19:18.592Z,47.10
2023-04-11T10:22:43.364Z,47.20
2023-04-11T10:26:08.462Z,45.90
2023-04-11T10:29:30.333Z,45.60
2023-04-11T10:32:32.446Z,44.00
2023-04-11T10:35:34.616Z,47.20
2023-04-11T10:38:49.085Z,45.50
2023-04-11T10:41:52.345Z,46.30
2023-04-11T10:45:19.541Z,48.30
2023-04-11T10:48:21.777Z,48.30
2023-04-11T10:51:26.919Z,50.10
2023-04-11T10:54:28.951Z,49.90
2023-04-11T10:58:03.592Z,49.60
2023-04-11T11:01:31.743Z,49.50
2023-04-11T11:04:41.006Z,48.50
2023-04-11T11:07:47.120Z,48.60
2023-04-11T11:10:50.492Z,49.20
2023-04-11T11:13:56.213Z,49.80
2023-04-11T11:16:58.883Z,49.60
2023-04-11T11:20:00.972Z,51.60
2023-04-11T11:23:09.864Z,51.60
2023-04-11T11:26:11.826Z,52.90
2023-04-11T11:29:13.849Z,51.30
2023-04-11T11:32:28.867Z,49.50
2023-04-11T11:35:31.467Z,51.80
2023-04-11T11:38:33.574Z,52.80
2023-04-11T11:41:36.398Z,53.20
2023-04-11T11:44:38.608Z,56.60
2023-04-11T11:47:48.751Z,58.30
2023-04-11T11:50:58.182Z,60.60
2023-04-11T11:54:05.092Z,61.60
2023-04-11T11:57:07.095Z,62.20
2023-04-11T12:00:10.661Z,64.80
2023-04-11T12:03:19.700Z,66.50
2023-04-11T12:06:21.977Z,67.00
2023-04-11T12:09:31.743Z,67.90
2023-04-11T12:12:42.099Z,67.40
2023-04-11T12:15:50.680Z,67.20
2023-04-11T12:18:52.800Z,68.30
2023-04-11T12:21:54.842Z,67.80
2023-04-11T12:25:06.056Z,69.40
2023-04-11T12:28:09.824Z,70.10
2023-04-11T12:31:12.626Z,71.00
2023-04-11T12:34:15.088Z,71.00
2023-04-11T12:37:17.106Z,71.00
2023-04-11T12:40:20.684Z,71.20
2023-04-11T12:43:22.792Z,71.80
2023-04-11T12:46:25.273Z,71.20
2023-04-11T12:49:28.477Z,71.80
2023-04-11T12:52:31.077Z,71.60
2023-04-11T12:55:37.170Z,72.00
2023-04-11T12:58:39.284Z,71.70
2023-04-11T13:01:42.112Z,71.40
2023-04-11T13:04:44.252Z,70.60
2023-04-11T13:07:46.749Z,71.20
2023-04-11T13:10:48.782Z,71.80
2023-04-11T13:13:52.786Z,72.80
2023-04-11T13:16:54.809Z,73.60
2023-04-11T13:19:56.877Z,73.50
2023-04-11T13:22:58.957Z,73.50
2023-04-11T13:26:01.221Z,73.20
2023-04-11T13:29:03.197Z,72.00
2023-04-11T13:32:05.478Z,71.70
2023-04-11T13:35:08.303Z,71.80
2023-04-11T13:38:12.674Z,72.20
2023-04-11T13:41:15.038Z,72.10
2023-04-11T13:44:17.259Z,71.80
2023-04-11T13:47:19.420Z,71.60
2023-04-11T13:50:21.548Z,71.60
2023-04-11T13:53:26.242Z,71.30
2023-04-11T13:56:28.341Z,71.70
2023-04-11T13:59:30.537Z,72.50
2023-04-11T14:02:32.689Z,74.30
2023-04-11T14:05:35.732Z,73.60
2023-04-11T14:08:37.831Z,73.00
2023-04-11T14:11:39.935Z,72.80
2023-04-11T14:14:43.900Z,73.50
2023-04-11T14:17:47.939Z,73.20
2023-04-11T14:20:49.934Z,73.70
2023-04-11T14:23:52.403Z,73.80
2023-04-11T14:26:54.391Z,73.60
2023-04-11T14:29:56.738Z,73.50
2023-04-11T14:32:58.910Z,74.40
2023-04-11T14:36:01.279Z,74.40
2023-04-11T14:39:05.152Z,74.70
2023-04-11T14:42:07.343Z,75.00
2023-04-11T14:45:09.667Z,75.40
2023-04-11T14:48:11.955Z,75.20
2023-04-11T14:51:14.195Z,75.70
2023-04-11T14:54:16.314Z,75.80
2023-04-11T14:57:18.419Z,75.70
2023-04-11T15:00:22.040Z,76.00
2023-04-11T15:03:24.758Z,75.90
2023-04-11T15:06:27.580Z,76.00
2023-04-11T15:09:29.684Z,76.10
2023-04-11T15:12:31.685Z,75.70
2023-04-11T15:15:34.087Z,76.20
2023-04-11T15:18:36.210Z,76.40
2023-04-11T15:21:38.595Z,76.30
2023-04-11T15:24:40.879Z,76.80
2023-04-11T15:27:43.249Z,77.60
2023-04-11T15:30:48.484Z,79.20
2023-04-11T15:33:50.465Z,78.50
2023-04-11T15:36:52.415Z,78.00
2023-04-11T15:39:54.487Z,78.10
2023-04-11T15:42:56.516Z,78.80
2023-04-11T15:45:58.496Z,78.40
2023-04-11T15:49:00.606Z,77.60
2023-04-11T15:52:02.599Z,77.80
2023-04-11T15:55:04.929Z,77.80
2023-04-11T15:58:07.219Z,78.10
2023-04-11T16:01:24.013Z,77.70
2023-04-11T16:04:27.292Z,77.70
2023-04-11T16:07:29.839Z,78.40
2023-04-11T16:10:32.523Z,77.80
2023-04-11T16:13:34.588Z,77.60
2023-04-11T16:16:36.645Z,77.80
2023-04-11T16:19:38.656Z,77.70
2023-04-11T16:22:40.752Z,77.70
2023-04-11T16:25:43.932Z,77.90
2023-04-11T16:28:47.141Z,77.20
2023-04-11T16:31:49.392Z,77.20
2023-04-11T16:34:54.477Z,77.00
2023-04-11T16:37:56.580Z,76.90
2023-04-11T16:41:00.803Z,76.70
2023-04-11T16:44:11.674Z,76.70
2023-04-11T16:47:13.707Z,76.90
2023-04-11T16:50:16.001Z,76.10
2023-04-11T16:53:18.712Z,76.20
2023-04-11T16:56:21.592Z,76.00
2023-04-11T16:59:23.991Z,76.00
2023-04-11T17:02:26.182Z,76.30
2023-04-11T17:05:28.304Z,76.10
2023-04-11T17:08:31.197Z,76.00
2023-04-11T17:11:35.214Z,75.90
2023-04-11T17:14:38.368Z,77.30
2023-04-11T17:17:40.498Z,76.70
2023-04-11T17:20:43.677Z,76.10
2023-04-11T17:23:46.771Z,76.00
2023-04-11T17:26:48.804Z,76.10
2023-04-11T17:29:50.888Z,75.80
2023-04-11T17:32:55.418Z,76.00
2023-04-11T17:35:57.415Z,76.00
2023-04-11T17:38:59.918Z,76.30
2023-04-11T17:42:02.164Z,76.80
2023-04-11T17:45:16.476Z,77.10
2023-04-11T17:48:20.404Z,77.50
2023-04-11T17:51:22.486Z,77.80
2023-04-11T17:54:24.922Z,78.20
2023-04-11T17:57:27.575Z,78.50
2023-04-11T18:00:30.423Z,78.70
2023-04-11T18:03:35.336Z,78.70
2023-04-11T18:06:37.867Z,78.50
2023-04-11T18:09:40.906Z,78.70
2023-04-11T18:12:44.485Z,78.70
2023-04-11T18:15:46.617Z,78.60
2023-04-11T18:18:50.369Z,78.80
2023-04-11T18:21:52.477Z,78.60
2023-04-11T18:24:54.579Z,79.00
2023-04-11T18:27:56.785Z,79.10
2023-04-11T18:30:58.843Z,78.60
2023-04-11T18:34:03.166Z,78.90
2023-04-11T18:37:05.895Z,78.80
2023-04-11T18:40:14.188Z,79.10
2023-04-11T18:43:16.961Z,79.40
2023-04-11T18:46:19.019Z,80.00
2023-04-11T18:49:21.711Z,79.70
2023-04-11T18:52:24.125Z,80.50
2023-04-11T18:55:27.847Z,81.10
2023-04-11T18:58:32.949Z,81.00
2023-04-11T19:01:36.447Z,81.00
2023-04-11T19:04:42.753Z,81.30
2023-04-11T19:07:45.858Z,81.20
2023-04-11T19:10:47.961Z,81.00
2023-04-11T19:13:49.946Z,81.90
2023-04-11T19:16:52.064Z,82.20
2023-04-11T19:19:54.232Z,83.10
2023-04-11T19:23:02.503Z,83.20
2023-04-11T19:26:05.041Z,83.80
2023-04-11T19:29:07.770Z,84.30
2023-04-11T19:32:10.035Z,85.30
2023-04-11T19:35:12.698Z,85.20
2023-04-11T19:38:14.881Z,86.60
2023-04-11T19:41:18.168Z,87.10
2023-04-11T19:44:20.189Z,88.50
2023-04-11T19:47:22.452Z,88.10
2023-04-11T19:50:24.584Z,87.80
2023-04-11T19:53:26.785Z,89.70
2023-04-11T19:56:28.754Z,90.30
2023-04-11T19:59:30.862Z,90.10
2023-04-11T20:02:33.724Z,90.20
2023-04-11T20:05:36.202Z,90.10
2023-04-11T20:08:38.459Z,90.20
2023-04-11T20:11:40.854Z,90.70
2023-04-11T20:14:43.985Z,90.70
2023-04-11T20:17:47.096Z,90.50
2023-04-11T20:20:49.217Z,90.50
2023-04-11T20:23:51.898Z,91.10
2023-04-11T20:26:54.205Z,90.50
2023-04-11T20:29:59.196Z,90.80
2023-04-11T20:33:01.746Z,91.10
2023-04-11T20:36:04.076Z,91.20
2023-04-11T20:39:06.566Z,90.70
2023-04-11T20:42:11.066Z,91.70
2023-04-11T20:45:14.251Z,91.80
2023-04-11T20:48:16.633Z,91.90
2023-04-11T20:51:18.675Z,91.50
2023-04-11T20:54:21.955Z,91.60
2023-04-11T20:57:24.153Z,92.00
2023-04-11T21:00:26.299Z,91.50
2023-04-11T21:03:33.577Z,91.70
2023-04-11T21:06:36.216Z,92.50
2023-04-11T21:09:38.237Z,92.10
2023-04-11T21:12:41.321Z,92.40
2023-04-11T21:15:43.422Z,92.90
2023-04-11T21:18:45.439Z,93.40
2023-04-11T21:21:47.458Z,94.30
2023-04-11T21:24:49.535Z,94.30
2023-04-11T21:27:51.626Z,94.70
2023-04-11T21:30:53.715Z,93.90
2023-04-11T21:33:56.104Z,94.00
2023-04-11T21:36:58.419Z,94.40
2023-04-11T21:40:00.740Z,94.30
2023-04-11T21:43:03.518Z,94.70
2023-04-11T21:46:05.714Z,94.00
2023-04-11T21:49:07.755Z,94.60
2023-04-11T21:52:09.768Z,94.60
2023-04-11T21:55:12.175Z,94.20
2023-04-11T21:58:27.970Z,94.80
2023-04-11T22:01:31.178Z,94.40
2023-04-11T22:04:44.334Z,94.80
2023-04-11T22:08:10.614Z,94.50
2023-04-11T22:11:14.747Z,94.20
2023-04-11T22:14:18.206Z,94.00
2023-04-11T22:17:20.361Z,93.90
2023-04-11T22:20:22.480Z,94.20
2023-04-11T22:23:25.260Z,94.00
2023-04-11T22:26:35.166Z,94.30
2023-04-11T22:29:37.488Z,94.60
2023-04-11T22:32:39.642Z,94.40
2023-04-11T22:35:45.206Z,94.60
2023-04-11T22:38:47.649Z,94.50
2023-04-11T22:41:55.139Z,94.60
2023-04-11T22:45:08.405Z,95.00
2023-04-11T22:48:14.818Z,95.10
2023-04-11T22:51:17.291Z,95.10
2023-04-11T22:54:20.308Z,95.00
2023-04-11T22:57:22.890Z,95.50
2023-04-11T23:00:30.619Z,95.50
2023-04-11T23:03:33.079Z,96.00
2023-04-11T23:06:35.086Z,95.60
2023-04-11T23:09:37.385Z,96.10
2023-04-11T23:12:39.788Z,96.20
2023-04-11T23:15:41.799Z,96.30
2023-04-11T23:18:46.832Z,96.50
2023-04-11T23:21:49.144Z,96.50
2023-04-11T23:24:53.725Z,96.10
2023-04-11T23:27:56.126Z,96.80
2023-04-11T23:30:58.199Z,97.00
2023-04-11T23:34:00.975Z,96.60
2023-04-11T23:37:04.496Z,96.70
2023-04-11T23:40:13.684Z,96.70
2023-04-11T23:43:19.952Z,96.60
2023-04-11T23:46:22.042Z,96.70
2023-04-11T23:49:24.084Z,96.80
2023-04-11T23:52:26.705Z,97.10
2023-04-11T23:55:28.654Z,97.20
2023-04-11T23:58:30.691Z,97.40
